Teuge International Airport

EHTE · Gelderland, Holandia

2 października 2022

Czas Kod Pogoda Temp. Widoczność Sufit Wiatr METAR/SPECI
10:34
V
15 °C 10 km+ 20.000 ft 250° 250° 7 kt METAR EHVK 020834Z AUTO 25007KT 9999 FEW010 SCT023 OVC200 15/13 Q1016 WHT
10:25
V
15 °C 10 km+ 19.000 ft 240° 240° 6 kt METAR EHVK 020825Z AUTO 24006KT 9999 FEW007 SCT010 OVC190 15/13 Q1016 GRN
10:10
V
15 °C 10 km+ 19.000 ft 240° 240° 10 kt METAR EHVK 020810Z AUTO 24010KT 9999 FEW006 SCT007 OVC190 15/13 Q1016 GRN
09:55
I
15 °C 10 km+ 900 ft 240° 240° 9 kt METAR EHVK 020755Z AUTO 24009KT 9999 SCT006 SCT008 BKN009 15/14 Q1016 YLO
09:26
V
14 °C 10 km+ 7.300 ft 240° 240° 8 kt METAR EHVK 020726Z AUTO 24008KT 9999 FEW011 SCT030 BKN073 14/13 Q1016 BLU
09:25
V
14 °C 10 km+ 3.000 ft 240° 240° 8 kt METAR EHVK 020725Z AUTO 24008KT 9999 FEW006 SCT019 BKN030 14/13 Q1016 WHT
09:10
M
14 °C 10 km+ 2.800 ft 240° 240° 7 kt METAR EHVK 020710Z AUTO 24007KT 9999 FEW021 SCT024 BKN028 14/13 Q1016 WHT
08:55
V
14 °C 9 km 19.000 ft 240° 240° 6 kt METAR EHVK 020655Z AUTO 24006KT 9000 BR OVC190 14/13 Q1015 BLU
08:25
V
13 °C 9 km 19.000 ft 250° 250° 4 kt METAR EHVK 020625Z AUTO 25004KT 9000 BR OVC190 13/12 Q1015 BLU
07:55
V
13 °C 10 km+ 8.700 ft 240° 240° 5 kt METAR EHVK 020555Z AUTO 24005KT 9999 FEW049 BKN087 OVC200 13/12 Q1015 BLU
07:25
V
12 °C 10 km+ 20.000 ft 230° 230° 6 kt METAR EHVK 020525Z AUTO 23006KT 190V250 9999 FEW081 OVC200 12/11 Q1015 BLU
06:55
V
13 °C 10 km+ 19.000 ft 240° 240° 7 kt METAR EHVK 020455Z AUTO 24007KT 9999 FEW060 OVC190 13/12 Q1014 BLU
06:25
V
13 °C 10 km+ 5.900 ft 240° 240° 9 kt METAR EHVK 020425Z AUTO 24009KT 9999 FEW015CB BKN059 OVC064 13/12 Q1014 REDZ BLU
05:55
V
13 °C 10 km+ 6.900 ft 240° 240° 8 kt METAR EHVK 020355Z AUTO 24008KT 9999 -RA FEW015CB BKN069 OVC075 13/12 Q1014 BLU
05:25
V
13 °C 10 km+ 19.000 ft 230° 230° 8 kt METAR EHVK 020325Z AUTO 23008KT 9999 BKN190 13/12 Q1014 BLU
05:03
V
13 °C 10 km+ 6.400 ft 240° 240° 7 kt METAR EHVK 020303Z AUTO 24007KT 9999 FEW015 BKN064 OVC072 13/12 Q1014 BLU
04:55
V
13 °C 10 km+ 6.200 ft 230° 230° 8 kt METAR EHVK 020255Z AUTO 23008KT 9999 FEW014 SCT049 OVC062 13/12 Q1014 BLU
04:25
V
13 °C 10 km+ 7.000 ft 240° 240° 7 kt METAR EHVK 020225Z AUTO 24007KT 9999 FEW017 SCT065 BKN070 13/12 Q1014 BLU
03:55
V
13 °C 10 km+ 3.500 ft 220° 220° 8 kt METAR EHVK 020155Z AUTO 22008KT 9999 SCT031 OVC035 13/12 Q1014 BLU
03:25
V
12 °C 10 km+ 21.000 ft 200° 200° 6 kt METAR EHVK 020125Z AUTO 20006KT 170V230 9999 FEW074 OVC210 12/11 Q1014 BLU
02:55
V
12 °C 10 km+ 22.000 ft 210° 210° 6 kt METAR EHVK 020055Z AUTO 21006KT 170V230 9999 FEW011 BKN220 BKN280 12/11 Q1014 BLU
02:25
M
13 °C 10 km+ 1.200 ft 230° 230° 7 kt METAR EHVK 020025Z AUTO 23007KT 9999 BKN012 OVC014 13/12 Q1014 GRN
02:14
M
13 °C 10 km+ 1.400 ft 240° 240° 8 kt METAR EHVK 020014Z AUTO 24008KT 210V270 9999 FEW012 BKN014 OVC016 13/12 Q1014 GRN
02:10
M
13 °C 10 km+ 1.600 ft 240° 240° 7 kt METAR EHVK 020010Z AUTO 24007KT 210V280 9999 FEW012 SCT014 BKN016 13/11 Q1014 GRN
01:55
M
13 °C 10 km+ 1.000 ft 300° 300° 7 kt METAR EHVK 012355Z AUTO 30007KT 230V350 9999 SCT009 BKN010 FEW015CB OVC017 13/12 Q1014 GRN
01:44
V
13 °C 10 km+ 4.400 ft 240° 240° 9 kt METAR EHVK 012344Z AUTO 24009KT 200V320 9999 FEW016 SCT024 BKN044 13/11 Q1013 WHT
01:25
V
13 °C 10 km+ 10.000 ft 220° 220° 9 kt METAR EHVK 012325Z AUTO 22009KT 9999 OVC100 13/11 Q1013 BLU
00:55
V
12 °C 10 km+ 25.000 ft 230° 230° 9 kt METAR EHVK 012255Z AUTO 23009KT 9999 OVC250 12/11 Q1013 BLU
00:25
V
12 °C 10 km+ - 230° 230° 10 kt METAR EHVK 012225Z AUTO 23010KT 9999 SCT260 12/11 Q1013 BLU

1 października 2022

Czas Kod Pogoda Temp. Widoczność Sufit Wiatr METAR/SPECI
23:55
V
11 °C 10 km+ - 230° 230° 7 kt METAR EHVK 012155Z AUTO 23007KT 9999 NCD 11/10 Q1013 BLU
23:25
V
10 °C 10 km+ - 230° 230° 8 kt METAR EHVK 012125Z AUTO 23008KT 9999 NCD 10/09 Q1012 BLU
22:55
V
11 °C 10 km+ - 230° 230° 6 kt METAR EHVK 012055Z AUTO 23006KT 9999 NCD 11/09 Q1012 BLU
22:25
V
10 °C 10 km+ - 220° 220° 7 kt METAR EHVK 012025Z AUTO 22007KT 9999 NCD 10/09 Q1012 BLU
21:55
V
11 °C 10 km+ - 230° 230° 7 kt METAR EHVK 011955Z AUTO 23007KT 9999 NCD 11/09 Q1012 BLU
21:25
V
12 °C 10 km+ - 230° 230° 7 kt METAR EHVK 011925Z AUTO 23007KT 9999 FEW065 12/09 Q1011 BLU
20:55
V
12 °C 10 km+ 7.400 ft 230° 230° 6 kt METAR EHVK 011855Z AUTO 23006KT 9999 SCT067 OVC074 12/10 Q1011 BLU
20:25
V
12 °C 10 km+ - 230° 230° 6 kt METAR EHVK 011825Z AUTO 23006KT 9999 NCD 12/09 Q1011 BLU
19:55
V
14 °C 10 km+ - 250° 250° 7 kt METAR EHVK 011755Z AUTO 25007KT 9999 NCD 14/10 Q1010 BLU
19:25
V
15 °C 10 km+ - 260° 260° 7 kt METAR EHVK 011725Z AUTO 26007KT 230V290 9999 NCD 15/10 Q1010 BLU
18:55
V
16 °C 10 km+ - 260° 260° 10 kt METAR EHVK 011655Z AUTO 26010KT 240V300 9999 NCD 16/10 Q1009 BLU
18:25
V
16 °C 10 km+ - 270° 270° 11 kt METAR EHVK 011625Z AUTO 27011KT 230V310 9999 NCD 16/10 Q1009 BLU
17:55
V
17 °C 10 km+ - 260° 260° 14 kt METAR EHVK 011555Z AUTO 26014KT 230V300 9999 FEW067 17/10 Q1008 BLU
17:25
V
17 °C 10 km+ - 260° 260° 13 kt METAR EHVK 011525Z AUTO 26013KT 220V310 9999 SCT070 17/10 Q1008 BLU
16:55
V
17 °C 10 km+ - 270° 270° 11 kt METAR EHVK 011455Z AUTO 27011KT 240V310 9999 FEW034 17/10 Q1007 BLU
16:25
V
17 °C 10 km+ - 270° 270° 12 kt METAR EHVK 011425Z AUTO 27012KT 240V310 9999 FEW047 17/09 Q1007 BLU
15:55
V
17 °C 10 km+ - 270° 270° 12 kt METAR EHVK 011355Z AUTO 27012KT 240V310 9999 FEW077 17/09 Q1007 BLU
15:25
V
17 °C 10 km+ - 270° 270° 12 kt METAR EHVK 011325Z AUTO 27012KT 240V320 9999 FEW032 17/10 Q1006 BLU
14:55
V
17 °C 10 km+ - 270° 270° 11 - 21 kt METAR EHVK 011255Z AUTO 27011G21KT 230V330 9999 FEW026 SCT071 17/11 Q1006 BLU
14:25
V
15 °C 10 km+ 6.400 ft 270° 270° 12 kt METAR EHVK 011225Z AUTO 27012KT 230V310 9999 FEW037 SCT057 BKN064 15/11 Q1005 BLU
13:59
V
18 °C 10 km+ 6.200 ft 280° 280° 10 kt METAR EHVK 011159Z AUTO 28010KT 240V320 9999 SCT025 SCT031 BKN062 18/12 Q1005 BLU
13:55
V
18 °C 10 km+ 6.700 ft 270° 270° 12 kt METAR EHVK 011155Z AUTO 27012KT 240V330 9999 SCT024 SCT027 BKN067 18/12 Q1005 WHT
13:38
M
17 °C 10 km+ 2.500 ft 270° 270° 14 kt METAR EHVK 011138Z AUTO 27014KT 240V320 9999 -RA SCT022 BKN025 OVC031 17/11 Q1005 WHT
13:33
M
17 °C 10 km+ 2.500 ft 270° 270° 15 - 25 kt METAR EHVK 011133Z AUTO 27015G25KT 240V330 9999 SCT022 BKN025 BKN033 17/12 Q1005 WHT
13:25
V
18 °C 10 km+ - 260° 260° 14 kt METAR EHVK 011125Z AUTO 26014KT 230V310 9999 FEW027 18/12 Q1004 BLU
12:55
V
17 °C 10 km+ 6.600 ft 260° 260° 14 kt METAR EHVK 011055Z AUTO 26014KT 220V290 9999 FEW019CB BKN066 17/12 Q1004 BLU
12:32
V
16 °C 10 km+ - 260° 260° 11 kt METAR EHVK 011032Z AUTO 26011KT 230V300 9999 FEW015CB 16/12 Q1004 BLU
12:25
M
17 °C 10 km+ 2.500 ft 250° 250° 13 kt METAR EHVK 011025Z AUTO 25013KT 220V290 9999 SCT015CB SCT021 BKN025 17/13 Q1004 WHT
11:59
M
16 °C 10 km+ 1.600 ft 250° 250° 12 kt METAR EHVK 010959Z AUTO 25012KT 210V280 9999 FEW012 BKN016 BKN020 16/13 Q1003 WHT
11:55
M
16 °C 10 km+ 1.600 ft 240° 240° 11 kt METAR EHVK 010955Z AUTO 24011KT 210V280 9999 FEW009 SCT013 BKN016 16/14 Q1003 GRN
11:39
M
15 °C 10 km+ 1.300 ft 240° 240° 13 kt METAR EHVK 010939Z AUTO 24013KT 9999 FEW010 BKN013 BKN016 15/14 Q1003 GRN
11:33
V
16 °C 10 km+ - 240° 240° 14 kt METAR EHVK 010933Z AUTO 24014KT 200V260 9999 FEW007 SCT014 16/14 Q1003 GRN
11:25
V
15 °C 10 km+ - 230° 230° 12 kt METAR EHVK 010925Z AUTO 23012KT 190V250 9999 FEW007 SCT008 15/14 Q1003 GRN
11:08
V
14 °C 10 km+ 5.600 ft 240° 240° 9 kt METAR EHVK 010908Z AUTO 24009KT 210V270 9999 -RA FEW015CB BKN056 BKN061 14/13 Q1003 BLU
10:55
V
14 °C 9 km 6.100 ft 240° 240° 10 kt METAR EHVK 010855Z AUTO 24010KT 9000 RA FEW007 FEW015CB OVC061 14/13 Q1003 RERA REDZ BLU
10:26
V
14 °C 10 km+ 6.700 ft 230° 230° 12 kt METAR EHVK 010826Z AUTO 23012KT 9999 -SHRA FEW007 FEW015CB SCT031 BKN067 14/13 Q1003 BLU
10:25
I
14 °C 10 km+ 900 ft 230° 230° 11 kt METAR EHVK 010825Z AUTO 23011KT 200V260 9999 -SHRA FEW007 BKN009 BKN012 FEW015CB 14/13 Q1003 GRN
09:55
I
14 °C 10 km+ 900 ft 230° 230° 11 kt METAR EHVK 010755Z AUTO 23011KT 190V250 9999 FEW007 BKN009 FEW015CB BKN023 14/13 Q1002 GRN
09:33
I
14 °C 10 km+ 800 ft 220° 220° 11 kt METAR EHVK 010733Z AUTO 22011KT 190V250 9999 SCT007 BKN008 BKN020 14/13 Q1002 GRN
09:25
I
13 °C 10 km+ 700 ft 220° 220° 10 kt METAR EHVK 010725Z AUTO 22010KT 190V250 9999 SCT006 BKN007 OVC009 13/12 Q1002 YLO
09:14
M
13 °C 10 km+ 1.100 ft 220° 220° 10 kt METAR EHVK 010714Z AUTO 22010KT 180V260 9999 FEW008 SCT009 BKN011 13/12 Q1002 GRN
09:10
M
13 °C 10 km+ 1.600 ft 220° 220° 10 kt METAR EHVK 010710Z AUTO 22010KT 180V250 9999 FEW008 SCT012 OVC016 13/12 Q1002 GRN
09:00
M
13 °C 10 km+ 1.600 ft 220° 220° 9 kt METAR EHVK 010700Z AUTO 22009KT 180V250 9999 FEW007 BKN016 BKN019 13/12 Q1002 WHT
08:55
I
13 °C 10 km+ 900 ft 230° 230° 10 kt METAR EHVK 010655Z AUTO 23010KT 190V250 9999 FEW007 SCT008 BKN009 13/12 Q1002 GRN
08:25
I
13 °C 10 km+ 800 ft 220° 220° 11 kt METAR EHVK 010625Z AUTO 22011KT 9999 FEW007 BKN008 OVC010 13/12 Q1001 GRN
07:55
I
13 °C 10 km+ 800 ft 220° 220° 14 kt METAR EHVK 010555Z AUTO 22014KT 190V250 9999 SCT007 BKN008 OVC009 13/11 Q1001 GRN
07:25
I
12 °C 10 km+ 800 ft 220° 220° 15 kt METAR EHVK 010525Z AUTO 22015KT 190V250 9999 BKN008 OVC009 12/11 Q1001 GRN
06:55
I
12 °C 10 km+ 900 ft 220° 220° 15 kt METAR EHVK 010455Z AUTO 22015KT 190V250 9999 BKN009 OVC010 12/11 Q1000 GRN
06:25
M
12 °C 10 km+ 1.100 ft 210° 210° 15 kt METAR EHVK 010425Z AUTO 21015KT 170V250 9999 FEW009 BKN011 OVC013 12/11 Q1000 GRN
05:55
M
12 °C 10 km+ 1.100 ft 210° 210° 16 kt METAR EHVK 010355Z AUTO 21016KT 170V250 9999 FEW009 BKN011 OVC014 12/10 Q1000 GRN
05:25
I
12 °C 10 km+ 900 ft 210° 210° 16 - 28 kt METAR EHVK 010325Z AUTO 21016G28KT 170V240 9999 SCT008 BKN009 BKN010 12/10 Q1000 GRN
05:14
I
11 °C 10 km+ 800 ft 210° 210° 17 kt METAR EHVK 010314Z AUTO 21017KT 150V240 9999 SCT007 BKN008 BKN009 11/10 Q1000 GRN
05:13
M
11 °C 10 km+ 1.600 ft 200° 200° 17 - 27 kt METAR EHVK 010313Z AUTO 20017G27KT 150V240 9999 FEW007 SCT009 BKN016 11/10 Q1000 GRN
05:09
M
11 °C 10 km+ 1.500 ft 190° 190° 17 - 27 kt METAR EHVK 010309Z AUTO 19017G27KT 150V230 9999 FEW007 BKN015 BKN021 11/10 Q1000 WHT
04:55
M
11 °C 10 km+ 1.000 ft 200° 200° 18 kt METAR EHVK 010255Z AUTO 20018KT 150V240 9999 FEW009 BKN010 OVC016 11/10 Q1000 GRN
04:25
M
11 °C 10 km+ 1.000 ft 200° 200° 18 kt METAR EHVK 010225Z AUTO 20018KT 160V240 9999 +DZRA FEW009 BKN010 OVC012 11/10 Q1001 GRN
03:55
M
11 °C 10 km+ 1.100 ft 200° 200° 17 kt METAR EHVK 010155Z AUTO 20017KT 160V240 9999 -RA FEW009 BKN011 BKN014 FEW015CB 11/10 Q1001 RERA GRN
03:42
M
11 °C 10 km+ 1.400 ft 190° 190° 19 kt METAR EHVK 010142Z AUTO 19019KT 140V240 9999 -SHRA FEW007 BKN014 BKN015CB 11/10 Q1001 GRN
03:38
M
11 °C 7 km 1.500 ft 190° 190° 18 - 28 kt METAR EHVK 010138Z AUTO 19018G28KT 150V240 7000 RA FEW007 SCT013 BKN015CB 11/10 Q1002 GRN
03:28
M
11 °C 10 km+ 1.500 ft 200° 200° 16 kt METAR EHVK 010128Z AUTO 20016KT 150V260 9999 SHRA FEW008 SCT014 BKN015CB 11/10 Q1002 GRN
03:25
M
11 °C 10 km+ 1.500 ft 200° 200° 16 kt METAR EHVK 010125Z AUTO 20016KT 130V260 9999 SHRA FEW012 BKN015CB OVC018 11/10 Q1002 WHT
02:55
M
12 °C 10 km+ 1.500 ft 200° 200° 17 kt METAR EHVK 010055Z AUTO 20017KT 150V240 9999 -RA BKN015 BKN018 OVC041 12/09 Q1002 WHT
02:35
M
12 °C 10 km+ 1.600 ft 200° 200° 15 kt METAR EHVK 010035Z AUTO 20015KT 150V250 9999 -RA SCT014 BKN016 OVC021 12/10 Q1003 GRN
02:25
M
11 °C 10 km+ 1.500 ft 190° 190° 15 - 25 kt METAR EHVK 010025Z AUTO 19015G25KT 150V230 9999 -RA BKN015 BKN021 OVC069 11/09 Q1003 WHT
02:17
M
12 °C 10 km+ 1.900 ft 190° 190° 16 kt METAR EHVK 010017Z AUTO 19016KT 160V240 9999 -SHRA SCT016 BKN019 BKN059 12/09 Q1003 WHT
02:10
V
12 °C 10 km+ 5.900 ft 200° 200° 16 kt METAR EHVK 010010Z AUTO 20016KT 160V250 9999 -RA SCT016 SCT019 BKN059 12/09 Q1003 WHT
02:07
V
12 °C 10 km+ 7.100 ft 200° 200° 16 kt METAR EHVK 010007Z AUTO 20016KT 140V250 9999 -RA FEW016 SCT020 OVC071 12/09 Q1003 WHT
01:55
V
12 °C 10 km+ 7.100 ft 190° 190° 15 kt METAR EHVK 302355Z AUTO 19015KT 140V230 9999 -RA FEW022 OVC071 12/09 Q1003 BLU
01:25
V
12 °C 10 km+ 7.700 ft 190° 190° 15 kt METAR EHVK 302325Z AUTO 19015KT 140V240 9999 -SHRA FEW072 BKN077 OVC082 12/09 Q1004 BLU
00:55
V
12 °C 10 km+ 6.600 ft 200° 200° 14 kt METAR EHVK 302255Z AUTO 20014KT 170V230 9999 -RA FEW061 BKN066 OVC072 12/09 Q1005 BLU
00:25
V
13 °C 10 km+ 6.500 ft 200° 200° 12 kt METAR EHVK 302225Z AUTO 20012KT 160V250 9999 -RA FEW058 OVC065 13/08 Q1005 RERA REDZ BLU

30 września 2022

Czas Kod Pogoda Temp. Widoczność Sufit Wiatr METAR/SPECI
23:55
V
13 °C 10 km+ 8.300 ft 190° 190° 12 kt METAR EHVK 302155Z AUTO 19012KT 150V230 9999 FEW071 SCT077 BKN083 13/08 Q1005 BLU
23:25
V
13 °C 10 km+ 10.000 ft 180° 180° 12 kt METAR EHVK 302125Z AUTO 18012KT 140V230 9999 OVC100 13/08 Q1006 BLU
22:55
V
13 °C 10 km+ 10.000 ft 190° 190° 12 kt METAR EHVK 302055Z AUTO 19012KT 150V230 9999 OVC100 13/08 Q1006 BLU
22:25
V
13 °C 10 km+ 14.000 ft 190° 190° 12 kt METAR EHVK 302025Z AUTO 19012KT 150V220 9999 OVC140 13/08 Q1006 BLU
21:55
V
13 °C 10 km+ 16.000 ft 190° 190° 11 kt METAR EHVK 301955Z AUTO 19011KT 140V230 9999 OVC160 13/08 Q1007 BLU
21:25
V
13 °C 10 km+ 19.000 ft 190° 190° 10 kt METAR EHVK 301925Z AUTO 19010KT 150V230 9999 FEW054 BKN190 OVC250 13/08 Q1007 BLU
20:55
V
13 °C 10 km+ 22.000 ft 190° 190° 9 kt METAR EHVK 301855Z AUTO 19009KT 160V230 9999 OVC220 13/08 Q1008 BLU
20:25
V
13 °C 10 km+ 22.000 ft 190° 190° 7 kt METAR EHVK 301825Z AUTO 19007KT 160V220 9999 OVC220 13/08 Q1008 BLU
19:55
V
13 °C 10 km+ 5.800 ft 190° 190° 7 kt METAR EHVK 301755Z AUTO 19007KT 170V230 9999 FEW050 BKN058 BKN250 13/08 Q1008 BLU
19:25
V
13 °C 10 km+ 5.900 ft 190° 190° 5 kt METAR EHVK 301725Z AUTO 19005KT 160V220 9999 BKN059 OVC250 13/08 Q1008 BLU
18:55
V
14 °C 10 km+ 25.000 ft 200° 200° 6 kt METAR EHVK 301655Z AUTO 20006KT 9999 OVC250 14/08 Q1008 BLU
18:25
V
16 °C 10 km+ 26.000 ft 210° 210° 10 kt METAR EHVK 301625Z AUTO 21010KT 160V250 9999 FEW040 SCT044 OVC260 16/08 Q1008 BLU
17:55
V
16 °C 10 km+ 25.000 ft 210° 210° 14 kt METAR EHVK 301555Z AUTO 21014KT 9999 OVC250 16/08 Q1008 BLU
17:25
V
16 °C 10 km+ 27.000 ft 200° 200° 9 kt METAR EHVK 301525Z AUTO 20009KT 160V240 9999 FEW037 SCT056 OVC270 16/09 Q1008 BLU
16:55
V
16 °C 10 km+ 5.900 ft 210° 210° 10 kt METAR EHVK 301455Z AUTO 21010KT 180V260 9999 FEW052 OVC059 16/08 Q1008 BLU
16:25
V
16 °C 10 km+ 30.000 ft 210° 210° 12 kt METAR EHVK 301425Z AUTO 21012KT 160V250 9999 FEW035 SCT063 BKN300 16/08 Q1008 BLU
16:07
V
17 °C 10 km+ - 210° 210° 9 kt METAR EHVK 301407Z AUTO 21009KT 160V260 9999 SCT062 SCT320 17/09 Q1008 BLU
15:55
V
17 °C 10 km+ 3.500 ft 210° 210° 12 kt METAR EHVK 301355Z AUTO 21012KT 170V250 9999 BKN035 BKN040 BKN047 17/08 Q1009 BLU TEMPO 23010G20KT
15:25
V
17 °C 10 km+ - 210° 210° 11 kt METAR EHVK 301325Z AUTO 21011KT 170V240 9999 NCD 17/09 Q1009 BLU TEMPO 23010G20KT
14:55
V
16 °C 10 km+ - 220° 220° 12 kt METAR EHVK 301255Z AUTO 22012KT 180V260 9999 FEW035 16/08 Q1009 BLU TEMPO 23010G20KT
14:25
V
16 °C 10 km+ - 220° 220° 9 kt METAR EHVK 301225Z AUTO 22009KT 9999 FEW033 16/08 Q1009 BLU TEMPO 23010G20KT
13:55
M
16 °C 10 km+ 2.800 ft 220° 220° 10 kt METAR EHVK 301155Z AUTO 22010KT 150V270 9999 BKN028 16/09 Q1010 BLU TEMPO 23010G20KT
13:34
V
16 °C 10 km+ - 200° 200° 11 kt METAR EHVK 301134Z AUTO 20011KT 160V250 9999 FEW024 16/09 Q1010 BLU TEMPO 23010G20KT
13:25
V
16 °C 10 km+ - 210° 210° 9 kt METAR EHVK 301125Z AUTO 21009KT 160V260 9999 FEW023 16/10 Q1010 BLU TEMPO 23010G20KT
13:24
V
16 °C 10 km+ - 210° 210° 9 kt METAR EHVK 301124Z AUTO 21009KT 160V260 9999 SCT023 16/09 Q1010 WHT TEMPO 23010G20KT
12:55
V
15 °C 10 km+ - 220° 220° 9 kt METAR EHVK 301055Z AUTO 22009KT 160V240 9999 NCD 15/09 Q1010 BLU BECMG SCT018
12:32
V
14 °C 10 km+ - 200° 200° 8 kt METAR EHVK 301032Z AUTO 20008KT 160V260 9999 NCD 14/09 Q1010 BLU BECMG SCT018
12:25
V
14 °C 10 km+ - 210° 210° 7 kt METAR EHVK 301025Z AUTO 21007KT 160V260 9999 NCD 14/09 Q1010 BLU NOSIG
11:55
V
14 °C 10 km+ - 210° 210° 8 kt METAR EHVK 300955Z AUTO 21008KT 140V250 9999 NCD 14/09 Q1010 BLU NOSIG
11:25
V
13 °C 10 km+ - 200° 200° 7 kt METAR EHVK 300925Z AUTO 20007KT 150V220 9999 NCD 13/09 Q1010 BLU NOSIG
10:55
V
11 °C 10 km+ - 190° 190° 5 kt METAR EHVK 300855Z AUTO 19005KT 140V210 9999 NCD 11/09 Q1010 BLU NOSIG
Starsze dane

My i osoby trzecie śledzimy twoje zachowanie w internecie na naszej stronie za pomocą plików cookie. Jeśli kontynuujesz, zakładamy, że zgadzasz się z naszą polityką plików cookie. Dowiedz się więcej